sensor_id;sensor_type;location;lat;lon;timestamp;temperature;humidity
19999;DHT22;10160;50.926;4.374;2023-08-07T00:02:02;14.00;99.90
19999;DHT22;10160;50.926;4.374;2023-08-07T00:04:29;14.00;99.90
19999;DHT22;10160;50.926;4.374;2023-08-07T00:06:57;14.00;99.90
19999;DHT22;10160;50.926;4.374;2023-08-07T00:09:23;14.00;99.90
19999;DHT22;10160;50.926;4.374;2023-08-07T00:11:49;14.00;99.90
19999;DHT22;10160;50.926;4.374;2023-08-07T00:14:15;13.90;99.90
19999;DHT22;10160;50.926;4.374;2023-08-07T00:16:41;14.00;99.90
19999;DHT22;10160;50.926;4.374;2023-08-07T00:19:07;14.00;99.90
19999;DHT22;10160;50.926;4.374;2023-08-07T00:21:32;14.00;99.90
19999;DHT22;10160;50.926;4.374;2023-08-07T00:24:01;14.00;99.90
19999;DHT22;10160;50.926;4.374;2023-08-07T00:26:26;14.00;99.90
19999;DHT22;10160;50.926;4.374;2023-08-07T00:28:52;14.00;99.90
19999;DHT22;10160;50.926;4.374;2023-08-07T00:31:18;13.90;99.90
19999;DHT22;10160;50.926;4.374;2023-08-07T00:33:43;13.80;99.90
19999;DHT22;10160;50.926;4.374;2023-08-07T00:36:09;13.80;99.90
19999;DHT22;10160;50.926;4.374;2023-08-07T00:38:37;13.90;99.90
19999;DHT22;10160;50.926;4.374;2023-08-07T00:41:03;14.00;99.90
19999;DHT22;10160;50.926;4.374;2023-08-07T00:43:29;13.80;99.90
19999;DHT22;10160;50.926;4.374;2023-08-07T00:45:54;13.80;99.90
19999;DHT22;10160;50.926;4.374;2023-08-07T00:48:23;13.80;99.90
19999;DHT22;10160;50.926;4.374;2023-08-07T00:50:51;13.80;99.90
19999;DHT22;10160;50.926;4.374;2023-08-07T00:53:17;13.80;99.90
19999;DHT22;10160;50.926;4.374;2023-08-07T00:55:46;13.80;99.90
19999;DHT22;10160;50.926;4.374;2023-08-07T00:58:19;13.80;99.90
19999;DHT22;10160;50.926;4.374;2023-08-07T01:00:45;13.90;99.90
19999;DHT22;10160;50.926;4.374;2023-08-07T01:03:12;13.90;99.90
19999;DHT22;10160;50.926;4.374;2023-08-07T01:05:39;13.90;99.90
19999;DHT22;10160;50.926;4.374;2023-08-07T01:08:05;13.90;99.90
19999;DHT22;10160;50.926;4.374;2023-08-07T01:13:23;13.80;99.90
19999;DHT22;10160;50.926;4.374;2023-08-07T01:15:52;13.80;99.90
19999;DHT22;10160;50.926;4.374;2023-08-07T01:18:24;13.70;99.90
19999;DHT22;10160;50.926;4.374;2023-08-07T01:20:51;13.80;99.90
19999;DHT22;10160;50.926;4.374;2023-08-07T01:23:16;13.80;99.90
19999;DHT22;10160;50.926;4.374;2023-08-07T01:25:42;13.80;99.90
19999;DHT22;10160;50.926;4.374;2023-08-07T01:28:25;13.80;99.90
19999;DHT22;10160;50.926;4.374;2023-08-07T01:30:55;13.80;99.90
19999;DHT22;10160;50.926;4.374;2023-08-07T01:33:37;13.60;99.90
19999;DHT22;10160;50.926;4.374;2023-08-07T01:36:06;13.60;99.90
19999;DHT22;10160;50.926;4.374;2023-08-07T01:38:35;13.60;99.90
19999;DHT22;10160;50.926;4.374;2023-08-07T01:41:02;13.50;99.90
19999;DHT22;10160;50.926;4.374;2023-08-07T01:43:28;13.50;99.90
19999;DHT22;10160;50.926;4.374;2023-08-07T01:45:54;13.40;99.90
19999;DHT22;10160;50.926;4.374;2023-08-07T01:48:20;13.40;99.90
19999;DHT22;10160;50.926;4.374;2023-08-07T01:50:46;13.40;99.90
19999;DHT22;10160;50.926;4.374;2023-08-07T01:53:12;13.50;99.90
19999;DHT22;10160;50.926;4.374;2023-08-07T01:55:37;13.40;99.90
19999;DHT22;10160;50.926;4.374;2023-08-07T01:58:03;13.40;99.90
19999;DHT22;10160;50.926;4.374;2023-08-07T02:00:32;13.50;99.90
19999;DHT22;10160;50.926;4.374;2023-08-07T02:03:00;13.40;99.90
19999;DHT22;10160;50.926;4.374;2023-08-07T02:05:26;13.40;99.90
19999;DHT22;10160;50.926;4.374;2023-08-07T02:07:51;13.30;99.90
19999;DHT22;10160;50.926;4.374;2023-08-07T02:10:17;13.30;99.90
19999;DHT22;10160;50.926;4.374;2023-08-07T02:12:43;13.20;99.90
19999;DHT22;10160;50.926;4.374;2023-08-07T02:15:09;13.20;99.90
19999;DHT22;10160;50.926;4.374;2023-08-07T02:17:34;13.20;99.90
19999;DHT22;10160;50.926;4.374;2023-08-07T02:20:01;13.30;99.90
19999;DHT22;10160;50.926;4.374;2023-08-07T02:22:29;13.40;99.90
19999;DHT22;10160;50.926;4.374;2023-08-07T02:24:56;13.40;99.90
19999;DHT22;10160;50.926;4.374;2023-08-07T02:27:21;13.30;99.90
19999;DHT22;10160;50.926;4.374;2023-08-07T02:29:47;13.30;99.90
19999;DHT22;10160;50.926;4.374;2023-08-07T02:32:13;13.30;99.90
19999;DHT22;10160;50.926;4.374;2023-08-07T02:34:38;13.30;99.90
19999;DHT22;10160;50.926;4.374;2023-08-07T02:37:07;13.40;99.90
19999;DHT22;10160;50.926;4.374;2023-08-07T02:39:33;13.30;99.90
19999;DHT22;10160;50.926;4.374;2023-08-07T02:41:58;13.30;99.90
19999;DHT22;10160;50.926;4.374;2023-08-07T02:44:27;13.20;99.90
19999;DHT22;10160;50.926;4.374;2023-08-07T02:46:53;13.20;99.90
19999;DHT22;10160;50.926;4.374;2023-08-07T02:49:18;13.20;99.90
19999;DHT22;10160;50.926;4.374;2023-08-07T02:51:44;13.20;99.90
19999;DHT22;10160;50.926;4.374;2023-08-07T02:54:10;13.20;99.90
19999;DHT22;10160;50.926;4.374;2023-08-07T02:56:35;13.20;99.90
19999;DHT22;10160;50.926;4.374;2023-08-07T02:59:01;13.20;99.90
19999;DHT22;10160;50.926;4.374;2023-08-07T03:01:27;13.20;99.90
19999;DHT22;10160;50.926;4.374;2023-08-07T03:03:53;13.20;99.90
19999;DHT22;10160;50.926;4.374;2023-08-07T03:06:19;13.10;99.90
19999;DHT22;10160;50.926;4.374;2023-08-07T03:08:44;13.20;99.90
19999;DHT22;10160;50.926;4.374;2023-08-07T03:11:10;13.20;99.90
19999;DHT22;10160;50.926;4.374;2023-08-07T03:13:36;13.20;99.90
19999;DHT22;10160;50.926;4.374;2023-08-07T03:16:05;13.10;99.90
19999;DHT22;10160;50.926;4.374;2023-08-07T03:18:33;13.10;99.90
19999;DHT22;10160;50.926;4.374;2023-08-07T03:20:59;13.00;99.90
19999;DHT22;10160;50.926;4.374;2023-08-07T03:23:25;13.10;99.90
19999;DHT22;10160;50.926;4.374;2023-08-07T03:26:05;13.00;99.90
19999;DHT22;10160;50.926;4.374;2023-08-07T03:28:32;13.00;99.90
19999;DHT22;10160;50.926;4.374;2023-08-07T03:31:01;12.90;99.90
19999;DHT22;10160;50.926;4.374;2023-08-07T03:33:27;13.00;99.90
19999;DHT22;10160;50.926;4.374;2023-08-07T03:35:53;12.90;99.90
19999;DHT22;10160;50.926;4.374;2023-08-07T03:38:18;12.90;99.90
19999;DHT22;10160;50.926;4.374;2023-08-07T03:40:44;13.00;99.90
19999;DHT22;10160;50.926;4.374;2023-08-07T03:43:10;12.90;99.90
19999;DHT22;10160;50.926;4.374;2023-08-07T03:45:36;12.90;99.90
19999;DHT22;10160;50.926;4.374;2023-08-07T03:48:02;13.00;99.90
19999;DHT22;10160;50.926;4.374;2023-08-07T03:50:27;13.10;99.90
19999;DHT22;10160;50.926;4.374;2023-08-07T03:52:55;13.20;99.90
19999;DHT22;10160;50.926;4.374;2023-08-07T03:55:21;13.10;99.90
19999;DHT22;10160;50.926;4.374;2023-08-07T03:57:46;13.30;99.90
19999;DHT22;10160;50.926;4.374;2023-08-07T04:00:12;13.30;99.90
19999;DHT22;10160;50.926;4.374;2023-08-07T04:02:38;13.20;99.90
19999;DHT22;10160;50.926;4.374;2023-08-07T04:05:04;13.20;99.90
19999;DHT22;10160;50.926;4.374;2023-08-07T04:07:30;13.20;99.90
19999;DHT22;10160;50.926;4.374;2023-08-07T04:09:56;13.10;99.90
19999;DHT22;10160;50.926;4.374;2023-08-07T04:12:23;13.10;99.90
19999;DHT22;10160;50.926;4.374;2023-08-07T04:14:49;13.10;99.90
19999;DHT22;10160;50.926;4.374;2023-08-07T04:17:15;13.10;99.90
19999;DHT22;10160;50.926;4.374;2023-08-07T04:19:41;13.20;99.90
19999;DHT22;10160;50.926;4.374;2023-08-07T04:22:07;13.20;99.90
19999;DHT22;10160;50.926;4.374;2023-08-07T04:24:35;13.10;99.90
19999;DHT22;10160;50.926;4.374;2023-08-07T04:27:00;12.90;99.90
19999;DHT22;10160;50.926;4.374;2023-08-07T04:29:26;13.00;99.90
19999;DHT22;10160;50.926;4.374;2023-08-07T04:31:52;13.10;99.90
19999;DHT22;10160;50.926;4.374;2023-08-07T04:34:17;13.10;99.90
19999;DHT22;10160;50.926;4.374;2023-08-07T04:36:46;13.00;99.90
19999;DHT22;10160;50.926;4.374;2023-08-07T04:39:11;13.10;99.90
19999;DHT22;10160;50.926;4.374;2023-08-07T04:41:38;13.20;99.90
19999;DHT22;10160;50.926;4.374;2023-08-07T04:44:04;13.10;99.90
19999;DHT22;10160;50.926;4.374;2023-08-07T04:46:30;13.10;99.90
19999;DHT22;10160;50.926;4.374;2023-08-07T04:48:56;13.10;99.90
19999;DHT22;10160;50.926;4.374;2023-08-07T04:51:22;13.20;99.90
19999;DHT22;10160;50.926;4.374;2023-08-07T04:53:48;13.20;99.90
19999;DHT22;10160;50.926;4.374;2023-08-07T04:56:16;13.20;99.90
19999;DHT22;10160;50.926;4.374;2023-08-07T04:58:42;13.20;99.90
19999;DHT22;10160;50.926;4.374;2023-08-07T05:01:08;13.30;99.90
19999;DHT22;10160;50.926;4.374;2023-08-07T05:03:37;13.20;99.90
19999;DHT22;10160;50.926;4.374;2023-08-07T05:06:05;13.30;99.90
19999;DHT22;10160;50.926;4.374;2023-08-07T05:08:31;13.30;99.90
19999;DHT22;10160;50.926;4.374;2023-08-07T05:10:57;13.30;99.90
19999;DHT22;10160;50.926;4.374;2023-08-07T05:13:22;13.40;99.90
19999;DHT22;10160;50.926;4.374;2023-08-07T05:15:48;13.40;99.90
19999;DHT22;10160;50.926;4.374;2023-08-07T05:18:14;13.50;99.90
19999;DHT22;10160;50.926;4.374;2023-08-07T05:20:40;13.60;99.90
19999;DHT22;10160;50.926;4.374;2023-08-07T05:23:05;13.60;99.90
19999;DHT22;10160;50.926;4.374;2023-08-07T05:25:31;13.60;99.90
19999;DHT22;10160;50.926;4.374;2023-08-07T05:27:57;13.70;99.90
19999;DHT22;10160;50.926;4.374;2023-08-07T05:30:23;13.60;99.90
19999;DHT22;10160;50.926;4.374;2023-08-07T05:32:49;13.60;99.90
19999;DHT22;10160;50.926;4.374;2023-08-07T05:35:15;13.60;99.90
19999;DHT22;10160;50.926;4.374;2023-08-07T05:37:40;13.80;99.90
19999;DHT22;10160;50.926;4.374;2023-08-07T05:40:06;13.80;99.90
19999;DHT22;10160;50.926;4.374;2023-08-07T05:42:32;13.80;99.90
19999;DHT22;10160;50.926;4.374;2023-08-07T05:44:58;13.90;99.90
19999;DHT22;10160;50.926;4.374;2023-08-07T05:47:24;14.00;99.90
19999;DHT22;10160;50.926;4.374;2023-08-07T05:49:50;14.20;99.90
19999;DHT22;10160;50.926;4.374;2023-08-07T05:52:17;14.20;99.90
19999;DHT22;10160;50.926;4.374;2023-08-07T05:54:43;14.20;99.90
19999;DHT22;10160;50.926;4.374;2023-08-07T05:57:09;14.30;99.90
19999;DHT22;10160;50.926;4.374;2023-08-07T05:59:35;14.40;99.90
19999;DHT22;10160;50.926;4.374;2023-08-07T06:02:02;14.50;99.90
19999;DHT22;10160;50.926;4.374;2023-08-07T06:04:28;14.60;99.90
19999;DHT22;10160;50.926;4.374;2023-08-07T06:06:53;14.70;99.90
19999;DHT22;10160;50.926;4.374;2023-08-07T06:09:19;14.80;99.90
19999;DHT22;10160;50.926;4.374;2023-08-07T06:11:47;14.80;99.90
19999;DHT22;10160;50.926;4.374;2023-08-07T06:14:13;14.90;99.90
19999;DHT22;10160;50.926;4.374;2023-08-07T06:16:38;15.00;99.90
19999;DHT22;10160;50.926;4.374;2023-08-07T06:19:04;15.10;99.90
19999;DHT22;10160;50.926;4.374;2023-08-07T06:21:36;15.20;99.90
19999;DHT22;10160;50.926;4.374;2023-08-07T06:24:02;15.30;99.90
19999;DHT22;10160;50.926;4.374;2023-08-07T06:26:31;15.40;99.90
19999;DHT22;10160;50.926;4.374;2023-08-07T06:28:56;15.50;99.90
19999;DHT22;10160;50.926;4.374;2023-08-07T06:31:22;15.50;99.90
19999;DHT22;10160;50.926;4.374;2023-08-07T06:33:52;15.50;99.90
19999;DHT22;10160;50.926;4.374;2023-08-07T06:36:18;15.50;99.90
19999;DHT22;10160;50.926;4.374;2023-08-07T06:38:43;15.60;99.90
19999;DHT22;10160;50.926;4.374;2023-08-07T06:41:09;15.70;99.90
19999;DHT22;10160;50.926;4.374;2023-08-07T06:43:35;15.50;99.90
19999;DHT22;10160;50.926;4.374;2023-08-07T06:46:00;15.60;99.90
19999;DHT22;10160;50.926;4.374;2023-08-07T06:48:26;15.70;99.90
19999;DHT22;10160;50.926;4.374;2023-08-07T06:50:52;15.60;99.90
19999;DHT22;10160;50.926;4.374;2023-08-07T06:53:18;15.70;99.90
19999;DHT22;10160;50.926;4.374;2023-08-07T06:55:44;15.80;99.90
19999;DHT22;10160;50.926;4.374;2023-08-07T06:58:10;15.90;99.90
19999;DHT22;10160;50.926;4.374;2023-08-07T07:00:36;15.80;99.90
19999;DHT22;10160;50.926;4.374;2023-08-07T07:03:02;15.90;99.90
19999;DHT22;10160;50.926;4.374;2023-08-07T07:05:28;15.70;99.90
19999;DHT22;10160;50.926;4.374;2023-08-07T07:07:55;15.80;99.90
19999;DHT22;10160;50.926;4.374;2023-08-07T07:10:21;15.90;99.90
19999;DHT22;10160;50.926;4.374;2023-08-07T07:12:47;16.00;99.90
19999;DHT22;10160;50.926;4.374;2023-08-07T07:15:13;15.90;99.90
19999;DHT22;10160;50.926;4.374;2023-08-07T07:17:39;15.90;99.90
19999;DHT22;10160;50.926;4.374;2023-08-07T07:20:06;15.90;99.90
19999;DHT22;10160;50.926;4.374;2023-08-07T07:22:31;16.10;99.90
19999;DHT22;10160;50.926;4.374;2023-08-07T07:24:57;16.20;99.90
19999;DHT22;10160;50.926;4.374;2023-08-07T07:27:23;16.30;99.90
19999;DHT22;10160;50.926;4.374;2023-08-07T07:29:51;16.20;99.90
19999;DHT22;10160;50.926;4.374;2023-08-07T07:32:17;16.20;99.90
19999;DHT22;10160;50.926;4.374;2023-08-07T07:34:43;16.20;99.90
19999;DHT22;10160;50.926;4.374;2023-08-07T07:37:09;16.30;99.90
19999;DHT22;10160;50.926;4.374;2023-08-07T07:39:35;16.40;99.90
19999;DHT22;10160;50.926;4.374;2023-08-07T07:42:01;16.40;99.90
19999;DHT22;10160;50.926;4.374;2023-08-07T07:44:27;16.50;99.90
19999;DHT22;10160;50.926;4.374;2023-08-07T07:46:52;16.40;99.90
19999;DHT22;10160;50.926;4.374;2023-08-07T07:49:18;16.30;99.90
19999;DHT22;10160;50.926;4.374;2023-08-07T07:51:43;16.40;99.90
19999;DHT22;10160;50.926;4.374;2023-08-07T07:54:10;16.40;99.90
19999;DHT22;10160;50.926;4.374;2023-08-07T07:56:36;16.50;99.90
19999;DHT22;10160;50.926;4.374;2023-08-07T07:59:01;16.50;99.90
19999;DHT22;10160;50.926;4.374;2023-08-07T08:01:28;16.40;99.90
19999;DHT22;10160;50.926;4.374;2023-08-07T08:03:54;16.50;99.90
19999;DHT22;10160;50.926;4.374;2023-08-07T08:06:19;16.70;99.90
19999;DHT22;10160;50.926;4.374;2023-08-07T08:08:45;16.70;99.90
19999;DHT22;10160;50.926;4.374;2023-08-07T08:11:10;16.80;99.90
19999;DHT22;10160;50.926;4.374;2023-08-07T08:13:36;16.90;99.90
19999;DHT22;10160;50.926;4.374;2023-08-07T08:16:07;16.80;99.90
19999;DHT22;10160;50.926;4.374;2023-08-07T08:18:32;16.90;99.90
19999;DHT22;10160;50.926;4.374;2023-08-07T08:20:58;16.90;99.90
19999;DHT22;10160;50.926;4.374;2023-08-07T08:23:24;16.90;99.90
19999;DHT22;10160;50.926;4.374;2023-08-07T08:25:49;17.10;99.90
19999;DHT22;10160;50.926;4.374;2023-08-07T08:28:17;17.20;99.90
19999;DHT22;10160;50.926;4.374;2023-08-07T08:30:42;17.40;99.90
19999;DHT22;10160;50.926;4.374;2023-08-07T08:33:08;17.60;99.90
19999;DHT22;10160;50.926;4.374;2023-08-07T08:35:37;17.50;99.90
19999;DHT22;10160;50.926;4.374;2023-08-07T08:38:03;17.50;99.90
19999;DHT22;10160;50.926;4.374;2023-08-07T08:40:30;17.60;99.90
19999;DHT22;10160;50.926;4.374;2023-08-07T08:42:56;17.60;99.90
19999;DHT22;10160;50.926;4.374;2023-08-07T08:45:28;17.80;99.90
19999;DHT22;10160;50.926;4.374;2023-08-07T08:48:02;17.90;99.90
19999;DHT22;10160;50.926;4.374;2023-08-07T08:50:28;17.90;99.90
19999;DHT22;10160;50.926;4.374;2023-08-07T08:52:56;18.10;99.90
19999;DHT22;10160;50.926;4.374;2023-08-07T08:55:25;18.30;99.90
19999;DHT22;10160;50.926;4.374;2023-08-07T08:57:52;18.20;99.90
19999;DHT22;10160;50.926;4.374;2023-08-07T09:00:21;18.10;99.90
19999;DHT22;10160;50.926;4.374;2023-08-07T09:02:49;18.40;99.90
19999;DHT22;10160;50.926;4.374;2023-08-07T09:05:17;18.50;99.90
19999;DHT22;10160;50.926;4.374;2023-08-07T09:07:44;18.60;99.90
19999;DHT22;10160;50.926;4.374;2023-08-07T09:10:12;18.70;99.90
19999;DHT22;10160;50.926;4.374;2023-08-07T09:12:40;18.50;99.90
19999;DHT22;10160;50.926;4.374;2023-08-07T09:15:08;18.30;99.90
19999;DHT22;10160;50.926;4.374;2023-08-07T09:17:39;18.00;99.90
19999;DHT22;10160;50.926;4.374;2023-08-07T09:20:06;18.10;99.90
19999;DHT22;10160;50.926;4.374;2023-08-07T09:22:36;18.20;99.90
19999;DHT22;10160;50.926;4.374;2023-08-07T09:25:02;18.20;99.90
19999;DHT22;10160;50.926;4.374;2023-08-07T09:27:29;18.20;99.90
19999;DHT22;10160;50.926;4.374;2023-08-07T09:29:56;18.30;99.90
19999;DHT22;10160;50.926;4.374;2023-08-07T09:32:22;18.50;99.90
19999;DHT22;10160;50.926;4.374;2023-08-07T09:34:50;18.70;99.90
19999;DHT22;10160;50.926;4.374;2023-08-07T09:37:16;19.00;99.90
19999;DHT22;10160;50.926;4.374;2023-08-07T09:39:42;18.80;99.90
19999;DHT22;10160;50.926;4.374;2023-08-07T09:42:15;18.90;99.90
19999;DHT22;10160;50.926;4.374;2023-08-07T09:44:41;19.00;99.90
19999;DHT22;10160;50.926;4.374;2023-08-07T09:47:18;19.00;99.90
19999;DHT22;10160;50.926;4.374;2023-08-07T09:49:44;19.00;99.90
19999;DHT22;10160;50.926;4.374;2023-08-07T09:52:12;19.20;99.90
19999;DHT22;10160;50.926;4.374;2023-08-07T09:54:43;19.40;99.90
19999;DHT22;10160;50.926;4.374;2023-08-07T09:57:09;19.30;99.90
19999;DHT22;10160;50.926;4.374;2023-08-07T09:59:35;19.20;99.90
19999;DHT22;10160;50.926;4.374;2023-08-07T10:02:02;19.00;99.90
19999;DHT22;10160;50.926;4.374;2023-08-07T10:04:29;19.00;99.90
19999;DHT22;10160;50.926;4.374;2023-08-07T10:06:56;18.80;99.90
19999;DHT22;10160;50.926;4.374;2023-08-07T10:09:21;19.00;99.90
19999;DHT22;10160;50.926;4.374;2023-08-07T10:11:49;19.20;99.90
19999;DHT22;10160;50.926;4.374;2023-08-07T10:14:15;19.50;99.90
19999;DHT22;10160;50.926;4.374;2023-08-07T10:16:41;19.90;99.90
19999;DHT22;10160;50.926;4.374;2023-08-07T10:19:08;19.90;99.90
19999;DHT22;10160;50.926;4.374;2023-08-07T10:21:41;19.90;99.90
19999;DHT22;10160;50.926;4.374;2023-08-07T10:24:08;19.90;99.90
19999;DHT22;10160;50.926;4.374;2023-08-07T10:26:35;20.20;99.90
19999;DHT22;10160;50.926;4.374;2023-08-07T10:29:04;20.40;99.90
19999;DHT22;10160;50.926;4.374;2023-08-07T10:31:31;20.30;99.90
19999;DHT22;10160;50.926;4.374;2023-08-07T10:33:59;20.30;99.90
19999;DHT22;10160;50.926;4.374;2023-08-07T10:36:32;20.50;99.90
19999;DHT22;10160;50.926;4.374;2023-08-07T10:39:08;20.50;99.90
19999;DHT22;10160;50.926;4.374;2023-08-07T10:41:47;20.20;99.90
19999;DHT22;10160;50.926;4.374;2023-08-07T10:44:27;20.20;99.90
19999;DHT22;10160;50.926;4.374;2023-08-07T10:46:56;20.40;99.90
19999;DHT22;10160;50.926;4.374;2023-08-07T10:51:58;20.70;99.90
19999;DHT22;10160;50.926;4.374;2023-08-07T10:54:24;20.90;99.90
19999;DHT22;10160;50.926;4.374;2023-08-07T10:56:54;20.90;99.90
19999;DHT22;10160;50.926;4.374;2023-08-07T10:59:20;21.30;99.90
19999;DHT22;10160;50.926;4.374;2023-08-07T11:01:51;21.40;99.90
19999;DHT22;10160;50.926;4.374;2023-08-07T11:04:18;21.20;99.90
19999;DHT22;10160;50.926;4.374;2023-08-07T11:06:47;21.00;99.90
19999;DHT22;10160;50.926;4.374;2023-08-07T11:09:15;21.00;99.90
19999;DHT22;10160;50.926;4.374;2023-08-07T11:11:48;20.80;99.90
19999;DHT22;10160;50.926;4.374;2023-08-07T11:14:15;20.50;99.90
19999;DHT22;10160;50.926;4.374;2023-08-07T11:16:42;20.40;99.90
19999;DHT22;10160;50.926;4.374;2023-08-07T11:19:09;20.80;99.90
19999;DHT22;10160;50.926;4.374;2023-08-07T11:21:35;21.10;99.90
19999;DHT22;10160;50.926;4.374;2023-08-07T11:24:02;21.30;99.90
19999;DHT22;10160;50.926;4.374;2023-08-07T11:26:28;21.30;99.90
19999;DHT22;10160;50.926;4.374;2023-08-07T11:28:55;20.90;99.90
19999;DHT22;10160;50.926;4.374;2023-08-07T11:31:22;21.10;99.90
19999;DHT22;10160;50.926;4.374;2023-08-07T11:33:56;21.30;99.90
19999;DHT22;10160;50.926;4.374;2023-08-07T11:36:24;22.00;99.90
19999;DHT22;10160;50.926;4.374;2023-08-07T11:38:50;21.90;99.90
19999;DHT22;10160;50.926;4.374;2023-08-07T11:41:19;21.70;99.90
19999;DHT22;10160;50.926;4.374;2023-08-07T11:43:45;21.20;99.90
19999;DHT22;10160;50.926;4.374;2023-08-07T11:46:13;20.90;99.90
19999;DHT22;10160;50.926;4.374;2023-08-07T11:48:40;20.70;99.90
19999;DHT22;10160;50.926;4.374;2023-08-07T11:51:07;20.40;99.90
19999;DHT22;10160;50.926;4.374;2023-08-07T11:53:38;20.90;99.90
19999;DHT22;10160;50.926;4.374;2023-08-07T11:56:09;21.60;99.90
19999;DHT22;10160;50.926;4.374;2023-08-07T11:58:36;21.80;99.90
19999;DHT22;10160;50.926;4.374;2023-08-07T12:01:14;21.60;99.90
19999;DHT22;10160;50.926;4.374;2023-08-07T12:03:52;21.60;99.90
19999;DHT22;10160;50.926;4.374;2023-08-07T12:06:25;21.40;99.90
19999;DHT22;10160;50.926;4.374;2023-08-07T12:08:57;21.40;99.90
19999;DHT22;10160;50.926;4.374;2023-08-07T12:11:23;21.40;99.90
19999;DHT22;10160;50.926;4.374;2023-08-07T12:13:49;21.40;99.90
19999;DHT22;10160;50.926;4.374;2023-08-07T12:16:16;21.70;99.90
19999;DHT22;10160;50.926;4.374;2023-08-07T12:18:52;22.10;99.90
19999;DHT22;10160;50.926;4.374;2023-08-07T12:21:20;22.40;99.90
19999;DHT22;10160;50.926;4.374;2023-08-07T12:23:49;22.70;99.90
19999;DHT22;10160;50.926;4.374;2023-08-07T12:26:16;22.50;99.90
19999;DHT22;10160;50.926;4.374;2023-08-07T12:28:42;22.70;99.90
19999;DHT22;10160;50.926;4.374;2023-08-07T12:31:08;22.60;99.90
19999;DHT22;10160;50.926;4.374;2023-08-07T12:33:34;22.10;99.90
19999;DHT22;10160;50.926;4.374;2023-08-07T12:36:00;21.50;99.90
19999;DHT22;10160;50.926;4.374;2023-08-07T12:38:27;21.00;99.90
19999;DHT22;10160;50.926;4.374;2023-08-07T12:40:53;20.70;99.90
19999;DHT22;10160;50.926;4.374;2023-08-07T12:43:19;21.00;99.90
19999;DHT22;10160;50.926;4.374;2023-08-07T12:45:45;21.40;99.90
19999;DHT22;10160;50.926;4.374;2023-08-07T12:48:10;21.90;99.90
19999;DHT22;10160;50.926;4.374;2023-08-07T12:50:36;22.30;99.90
19999;DHT22;10160;50.926;4.374;2023-08-07T12:53:02;22.70;99.90
19999;DHT22;10160;50.926;4.374;2023-08-07T12:55:31;23.00;99.90
19999;DHT22;10160;50.926;4.374;2023-08-07T12:57:57;23.00;99.90
19999;DHT22;10160;50.926;4.374;2023-08-07T13:00:23;22.60;99.90
19999;DHT22;10160;50.926;4.374;2023-08-07T13:02:50;22.70;99.90
19999;DHT22;10160;50.926;4.374;2023-08-07T13:05:16;22.00;99.90
19999;DHT22;10160;50.926;4.374;2023-08-07T13:07:46;22.10;99.90
19999;DHT22;10160;50.926;4.374;2023-08-07T13:10:16;22.00;99.90
19999;DHT22;10160;50.926;4.374;2023-08-07T13:12:48;22.20;99.90
19999;DHT22;10160;50.926;4.374;2023-08-07T13:15:15;22.50;99.90
19999;DHT22;10160;50.926;4.374;2023-08-07T13:17:42;22.80;99.90
19999;DHT22;10160;50.926;4.374;2023-08-07T13:20:09;23.00;99.90
19999;DHT22;10160;50.926;4.374;2023-08-07T13:22:42;23.00;99.90
19999;DHT22;10160;50.926;4.374;2023-08-07T13:25:08;23.00;99.90
19999;DHT22;10160;50.926;4.374;2023-08-07T13:27:34;22.90;99.90
19999;DHT22;10160;50.926;4.374;2023-08-07T13:30:01;22.60;99.90
19999;DHT22;10160;50.926;4.374;2023-08-07T13:32:27;22.50;99.90
19999;DHT22;10160;50.926;4.374;2023-08-07T13:34:53;22.80;99.90
19999;DHT22;10160;50.926;4.374;2023-08-07T13:37:19;22.50;99.90
19999;DHT22;10160;50.926;4.374;2023-08-07T13:39:45;22.50;99.90
19999;DHT22;10160;50.926;4.374;2023-08-07T13:42:10;22.60;99.90
19999;DHT22;10160;50.926;4.374;2023-08-07T13:44:37;22.70;99.90
19999;DHT22;10160;50.926;4.374;2023-08-07T13:47:04;22.60;99.90
19999;DHT22;10160;50.926;4.374;2023-08-07T13:49:30;22.10;99.90
19999;DHT22;10160;50.926;4.374;2023-08-07T13:51:56;21.80;99.90
19999;DHT22;10160;50.926;4.374;2023-08-07T13:54:22;21.60;99.90
19999;DHT22;10160;50.926;4.374;2023-08-07T13:56:47;21.50;99.90
19999;DHT22;10160;50.926;4.374;2023-08-07T13:59:16;21.10;99.90
19999;DHT22;10160;50.926;4.374;2023-08-07T14:01:42;21.20;99.90
19999;DHT22;10160;50.926;4.374;2023-08-07T14:04:08;21.10;99.90
19999;DHT22;10160;50.926;4.374;2023-08-07T14:06:37;21.40;99.90
19999;DHT22;10160;50.926;4.374;2023-08-07T14:09:06;21.80;99.90
19999;DHT22;10160;50.926;4.374;2023-08-07T14:11:35;22.20;99.90
19999;DHT22;10160;50.926;4.374;2023-08-07T14:14:00;22.70;99.90
19999;DHT22;10160;50.926;4.374;2023-08-07T14:16:26;22.90;99.90
19999;DHT22;10160;50.926;4.374;2023-08-07T14:18:52;22.70;99.90
19999;DHT22;10160;50.926;4.374;2023-08-07T14:21:18;22.40;99.90
19999;DHT22;10160;50.926;4.374;2023-08-07T14:23:44;22.30;99.90
19999;DHT22;10160;50.926;4.374;2023-08-07T14:26:11;22.50;99.90
19999;DHT22;10160;50.926;4.374;2023-08-07T14:28:40;22.70;99.90
19999;DHT22;10160;50.926;4.374;2023-08-07T14:31:07;22.60;99.90
19999;DHT22;10160;50.926;4.374;2023-08-07T14:33:33;22.20;99.90
19999;DHT22;10160;50.926;4.374;2023-08-07T14:35:59;22.50;99.90
19999;DHT22;10160;50.926;4.374;2023-08-07T14:38:28;22.60;99.90
19999;DHT22;10160;50.926;4.374;2023-08-07T14:40:55;22.70;99.90
19999;DHT22;10160;50.926;4.374;2023-08-07T14:43:28;22.80;99.90
19999;DHT22;10160;50.926;4.374;2023-08-07T14:45:54;22.80;99.90
19999;DHT22;10160;50.926;4.374;2023-08-07T14:48:20;22.60;99.90
19999;DHT22;10160;50.926;4.374;2023-08-07T14:50:46;22.70;99.90
19999;DHT22;10160;50.926;4.374;2023-08-07T14:53:11;22.70;99.90
19999;DHT22;10160;50.926;4.374;2023-08-07T14:55:37;22.40;99.90
19999;DHT22;10160;50.926;4.374;2023-08-07T14:58:03;22.10;99.90
19999;DHT22;10160;50.926;4.374;2023-08-07T15:00:29;21.90;99.90
19999;DHT22;10160;50.926;4.374;2023-08-07T15:02:57;22.10;99.90
19999;DHT22;10160;50.926;4.374;2023-08-07T15:05:23;22.20;99.90
19999;DHT22;10160;50.926;4.374;2023-08-07T15:07:49;22.30;99.90
19999;DHT22;10160;50.926;4.374;2023-08-07T15:10:14;22.30;99.90
19999;DHT22;10160;50.926;4.374;2023-08-07T15:12:40;22.30;99.90
19999;DHT22;10160;50.926;4.374;2023-08-07T15:15:06;22.30;99.90
19999;DHT22;10160;50.926;4.374;2023-08-07T15:17:35;22.40;99.90
19999;DHT22;10160;50.926;4.374;2023-08-07T15:20:01;22.30;99.90
19999;DHT22;10160;50.926;4.374;2023-08-07T15:22:26;22.30;99.90
19999;DHT22;10160;50.926;4.374;2023-08-07T15:24:53;22.20;99.90
19999;DHT22;10160;50.926;4.374;2023-08-07T15:27:18;22.10;99.90
19999;DHT22;10160;50.926;4.374;2023-08-07T15:29:44;22.00;99.90
19999;DHT22;10160;50.926;4.374;2023-08-07T15:32:12;21.80;99.90
19999;DHT22;10160;50.926;4.374;2023-08-07T15:34:39;21.80;99.90